createdAt,value
2018-07-11T00:00:23.338Z,13.97
2018-07-11T00:05:40.184Z,13.21
2018-07-11T00:08:09.495Z,13.19
2018-07-11T00:10:38.652Z,13.21
2018-07-11T00:13:12.578Z,13.23
2018-07-11T00:21:17.028Z,13.35
2018-07-11T00:23:51.261Z,13.36
2018-07-11T00:31:58.682Z,13.50
2018-07-11T00:34:25.608Z,13.45
2018-07-11T00:36:54.289Z,13.40
2018-07-11T00:39:23.423Z,13.34
2018-07-11T00:41:52.415Z,13.27
2018-07-11T00:47:08.743Z,13.19
2018-07-11T00:49:40.307Z,13.19
2018-07-11T00:54:56.529Z,13.14
2018-07-11T00:57:26.365Z,13.16
2018-07-11T00:59:55.280Z,13.19
2018-07-11T01:02:23.957Z,13.21
2018-07-11T01:04:52.591Z,13.19
2018-07-11T01:07:21.266Z,13.17
2018-07-11T01:09:50.276Z,13.18
2018-07-11T01:12:22.363Z,13.92
2018-07-11T01:14:57.800Z,14.15
2018-07-11T01:17:28.319Z,14.24
2018-07-11T01:19:59.424Z,13.60
2018-07-11T01:22:28.098Z,13.44
2018-07-11T01:24:57.018Z,13.37
2018-07-11T01:30:13.313Z,13.25
2018-07-11T01:32:42.421Z,13.98
2018-07-11T01:35:11.516Z,13.47
2018-07-11T01:37:40.321Z,13.36
2018-07-11T01:40:08.968Z,14.04
2018-07-11T01:42:37.658Z,13.54
2018-07-11T01:47:54.097Z,13.16
2018-07-11T01:50:22.769Z,13.07
2018-07-11T01:52:51.438Z,12.95
2018-07-11T01:55:20.073Z,12.90
2018-07-11T01:57:48.750Z,12.87
2018-07-11T02:00:17.406Z,12.87
2018-07-11T02:02:46.175Z,12.86
2018-07-11T02:05:14.839Z,13.62
2018-07-11T02:07:43.533Z,13.11
2018-07-11T02:10:13.173Z,12.98
2018-07-11T02:12:43.374Z,12.93
2018-07-11T02:15:12.633Z,12.91
2018-07-11T02:17:41.839Z,13.71
2018-07-11T02:20:11.920Z,13.25
2018-07-11T02:22:40.935Z,13.19
2018-07-11T02:25:18.814Z,13.19
2018-07-11T02:27:47.944Z,13.20
2018-07-11T02:30:17.624Z,13.22
2018-07-11T02:32:46.691Z,13.26
2018-07-11T02:35:15.620Z,13.29
2018-07-11T02:37:44.779Z,13.29
2018-07-11T02:40:14.231Z,13.27
2018-07-11T02:42:43.325Z,13.27
2018-07-11T02:45:12.270Z,14.01
2018-07-11T02:47:40.930Z,13.55
2018-07-11T02:50:09.625Z,13.51
2018-07-11T02:55:25.911Z,13.48
2018-07-11T02:57:54.618Z,13.49
2018-07-11T03:00:23.313Z,13.49
2018-07-11T03:02:51.932Z,13.46
2018-07-11T03:05:20.625Z,13.46
2018-07-11T03:07:49.283Z,13.47
2018-07-11T03:10:18.067Z,13.46
2018-07-11T03:12:48.458Z,14.14
2018-07-11T03:15:17.160Z,14.32
2018-07-11T03:17:46.878Z,13.79
2018-07-11T03:25:53.174Z,13.51
2018-07-11T03:28:21.895Z,13.48
2018-07-11T03:30:50.472Z,13.42
2018-07-11T03:33:19.165Z,13.35
2018-07-11T03:35:47.818Z,13.29
2018-07-11T03:38:16.460Z,13.23
2018-07-11T03:40:45.157Z,13.17
2018-07-11T03:43:13.809Z,13.14
2018-07-11T03:45:42.516Z,13.12
2018-07-11T03:48:11.160Z,13.10
2018-07-11T03:50:39.893Z,13.09
2018-07-11T03:53:08.551Z,13.08
2018-07-11T04:12:21.778Z,13.30
2018-07-11T04:14:50.767Z,13.40
2018-07-11T04:17:19.914Z,13.48
2018-07-11T04:19:49.532Z,13.57
2018-07-11T04:22:18.295Z,13.67
2018-07-11T04:27:36.606Z,14.15
2018-07-11T04:30:05.600Z,14.19
2018-07-11T04:32:34.855Z,14.28
2018-07-11T04:35:03.601Z,15.19
2018-07-11T04:37:32.380Z,15.51
2018-07-11T04:40:01.690Z,15.01
2018-07-11T04:42:31.188Z,14.98
2018-07-11T04:44:59.815Z,15.03
2018-07-11T04:47:33.667Z,15.10
2018-07-11T04:50:02.667Z,15.13
2018-07-11T04:52:33.944Z,15.18
2018-07-11T04:55:05.835Z,15.23
2018-07-11T05:00:24.356Z,16.50
2018-07-11T05:02:54.643Z,15.90
2018-07-11T05:05:23.875Z,15.80
2018-07-11T05:07:52.953Z,15.78
2018-07-11T05:10:23.593Z,15.79
2018-07-11T05:12:52.681Z,15.82
2018-07-11T05:15:21.828Z,15.83
2018-07-11T05:17:54.290Z,15.85
2018-07-11T05:20:25.743Z,15.85
2018-07-11T05:22:55.779Z,15.87
2018-07-11T05:25:25.416Z,15.90
2018-07-11T05:27:55.802Z,15.96
2018-07-11T05:30:26.282Z,16.03
2018-07-11T05:32:55.182Z,16.14
2018-07-11T05:35:26.677Z,16.28
2018-07-11T05:37:57.163Z,17.28
2018-07-11T05:40:27.316Z,16.92
2018-07-11T05:42:56.524Z,17.06
2018-07-11T05:45:29.090Z,17.30
2018-07-11T05:47:59.274Z,17.61
2018-07-11T05:50:39.687Z,17.81
2018-07-11T05:53:08.902Z,17.88
2018-07-11T05:55:38.084Z,17.99
2018-07-11T05:58:07.030Z,18.05
2018-07-11T06:25:31.099Z,19.36
2018-07-11T06:39:18.842Z,20.18
2018-07-11T07:33:02.487Z,22.23
2018-07-11T07:41:22.184Z,21.60
2018-07-11T07:43:55.603Z,21.47
2018-07-11T07:57:52.450Z,21.03
2018-07-11T08:06:08.519Z,20.94
2018-07-11T08:54:30.954Z,23.18
2018-07-11T09:14:05.143Z,23.07
2018-07-11T09:16:40.108Z,23.13
2018-07-11T09:19:17.420Z,23.17
2018-07-11T09:36:01.814Z,23.54
2018-07-11T09:38:32.209Z,23.49
2018-07-11T09:41:02.427Z,23.40
2018-07-11T11:30:29.712Z,25.89
2018-07-11T11:33:08.474Z,27.48
2018-07-11T12:09:13.148Z,27.30
2018-07-11T12:20:11.568Z,27.40
2018-07-11T12:53:42.976Z,28.60
2018-07-11T14:23:32.468Z,28.28
2018-07-11T14:40:19.118Z,27.61
2018-07-11T14:42:58.897Z,27.25
2018-07-11T14:45:31.089Z,28.27
2018-07-11T14:48:03.914Z,27.20
2018-07-11T14:53:28.487Z,26.55
2018-07-11T14:56:00.844Z,26.01
2018-07-11T15:01:33.406Z,24.85
2018-07-11T15:04:04.018Z,24.30
2018-07-11T15:09:22.232Z,21.41
2018-07-11T15:11:50.719Z,20.38
2018-07-11T15:17:07.615Z,18.60
2018-07-11T15:19:36.721Z,17.74
2018-07-11T15:22:06.010Z,18.55
2018-07-11T15:24:35.015Z,16.98
2018-07-11T15:27:04.760Z,16.85
2018-07-11T15:29:34.942Z,16.52
2018-07-11T15:35:00.786Z,16.23
2018-07-11T15:37:33.454Z,16.24
2018-07-11T15:40:03.985Z,16.19
2018-07-11T15:42:38.576Z,16.14
2018-07-11T15:45:08.023Z,16.06
2018-07-11T15:47:42.534Z,16.00
2018-07-11T15:50:11.700Z,15.96
2018-07-11T15:52:40.949Z,17.04
2018-07-11T15:55:09.969Z,16.31
2018-07-11T15:57:38.981Z,16.26
2018-07-11T16:00:08.460Z,16.28
2018-07-11T16:02:37.439Z,16.27
2018-07-11T16:05:06.818Z,16.27
2018-07-11T16:07:35.527Z,16.24
2018-07-11T16:10:04.434Z,16.25
2018-07-11T16:12:33.866Z,16.33
2018-07-11T16:15:02.689Z,17.39
2018-07-11T16:17:31.558Z,17.70
2018-07-11T16:20:00.225Z,17.00
2018-07-11T16:22:29.314Z,16.89
2018-07-11T16:24:58.087Z,17.87
2018-07-11T16:27:26.779Z,18.09
2018-07-11T16:29:56.437Z,18.23
2018-07-11T16:32:25.191Z,17.43
2018-07-11T16:34:53.907Z,17.24
2018-07-11T16:37:22.620Z,18.16
2018-07-11T16:39:51.554Z,18.37
2018-07-11T16:42:20.502Z,18.47
2018-07-11T16:44:50.127Z,17.67
2018-07-11T16:47:19.819Z,17.45
2018-07-11T16:49:48.950Z,18.36
2018-07-11T16:52:17.526Z,17.62
2018-07-11T16:54:46.349Z,17.48
2018-07-11T16:57:15.135Z,17.42
2018-07-11T16:59:44.073Z,18.36
2018-07-11T17:02:14.489Z,17.70
2018-07-11T17:04:46.108Z,17.55
2018-07-11T17:07:15.276Z,17.49
2018-07-11T17:09:44.958Z,17.46
2018-07-11T17:12:14.115Z,17.43
2018-07-11T17:14:43.402Z,17.42
2018-07-11T17:17:12.813Z,17.41
2018-07-11T17:19:42.108Z,18.32
2018-07-11T17:22:10.996Z,18.50
2018-07-11T17:24:41.586Z,18.62
2018-07-11T17:27:16.987Z,18.70
2018-07-11T17:29:46.206Z,17.99
2018-07-11T17:32:15.445Z,17.80
2018-07-11T17:34:44.429Z,17.73
2018-07-11T17:37:16.415Z,18.53
2018-07-11T17:39:45.834Z,17.95
2018-07-11T17:42:18.164Z,17.82
2018-07-11T17:44:47.845Z,17.77
2018-07-11T17:47:17.369Z,18.60
2018-07-11T17:49:46.451Z,18.01
2018-07-11T17:52:16.717Z,17.89
2018-07-11T17:54:46.015Z,17.84
2018-07-11T17:57:15.261Z,17.79
2018-07-11T17:59:45.070Z,17.75
2018-07-11T18:02:33.438Z,17.73
2018-07-11T18:05:02.567Z,17.67
2018-07-11T18:07:31.771Z,17.64
2018-07-11T18:10:01.182Z,17.61
2018-07-11T18:12:32.317Z,17.57
2018-07-11T18:15:02.147Z,17.52
2018-07-11T18:17:31.309Z,17.49
2018-07-11T18:20:00.632Z,17.46
2018-07-11T18:25:20.199Z,18.43
2018-07-11T18:27:49.996Z,17.77
2018-07-11T18:30:19.042Z,17.59
2018-07-11T18:32:50.206Z,17.48
2018-07-11T18:35:29.264Z,17.39
2018-07-11T18:37:58.305Z,17.30
2018-07-11T18:40:27.251Z,17.22
2018-07-11T18:42:56.351Z,17.15
2018-07-11T18:45:25.396Z,17.86
2018-07-11T18:50:42.610Z,17.11
2018-07-11T18:53:14.515Z,17.77
2018-07-11T18:55:43.797Z,17.17
2018-07-11T18:58:16.017Z,16.97
2018-07-11T19:00:44.973Z,16.83
2018-07-11T19:03:14.260Z,16.73
2018-07-11T19:05:44.285Z,16.62
2018-07-11T19:08:14.535Z,16.52
2018-07-11T19:10:51.876Z,16.45
2018-07-11T19:16:20.940Z,16.33
2018-07-11T19:19:04.411Z,16.27
2018-07-11T19:21:46.420Z,16.17
2018-07-11T19:24:19.770Z,16.11
2018-07-11T19:27:01.495Z,16.04
2018-07-11T19:32:30.675Z,16.12
2018-07-11T19:35:01.586Z,15.96
2018-07-11T19:37:30.389Z,15.84
2018-07-11T19:39:59.253Z,15.76
2018-07-11T19:42:34.946Z,15.69
2018-07-11T19:45:09.132Z,15.59
2018-07-11T19:47:42.510Z,15.54
2018-07-11T19:50:19.072Z,15.49
2018-07-11T19:52:51.384Z,15.45
2018-07-11T19:55:20.266Z,15.44
2018-07-11T19:57:49.762Z,15.39
2018-07-11T20:00:18.814Z,15.35
2018-07-11T20:02:49.655Z,16.02
2018-07-11T20:05:19.043Z,15.50
2018-07-11T20:07:47.894Z,15.37
2018-07-11T20:10:16.735Z,15.31
2018-07-11T20:12:45.697Z,15.26
2018-07-11T20:15:17.674Z,15.22
2018-07-11T20:17:47.430Z,15.16
2018-07-11T20:20:16.729Z,15.12
2018-07-11T20:22:45.654Z,15.09
2018-07-11T20:25:15.224Z,15.02
2018-07-11T20:27:44.283Z,14.95
2018-07-11T20:30:13.949Z,15.65
2018-07-11T20:32:43.624Z,15.13
2018-07-11T20:35:18.996Z,15.00
2018-07-11T20:37:53.926Z,14.93
2018-07-11T20:40:22.843Z,14.88
2018-07-11T20:42:54.932Z,14.84
2018-07-11T20:45:23.772Z,14.83
2018-07-11T20:47:56.217Z,15.51
2018-07-11T20:50:26.143Z,14.99
2018-07-11T20:52:55.949Z,15.60
2018-07-11T20:55:41.082Z,15.04
2018-07-11T20:58:10.350Z,14.86
2018-07-11T21:01:17.263Z,14.81
2018-07-11T21:03:50.898Z,15.53
2018-07-11T21:11:58.546Z,14.79
2018-07-11T21:14:28.119Z,14.75
2018-07-11T21:16:57.483Z,14.71
2018-07-11T21:19:31.418Z,14.67
2018-07-11T21:22:01.136Z,14.63
2018-07-11T21:24:33.271Z,14.58
2018-07-11T21:27:02.877Z,14.56
2018-07-11T21:29:35.687Z,14.53
2018-07-11T21:32:05.351Z,15.24
2018-07-11T21:34:34.998Z,14.73
2018-07-11T21:37:04.955Z,14.60
2018-07-11T21:39:34.356Z,14.53
2018-07-11T21:42:03.655Z,14.46
2018-07-11T21:44:34.793Z,14.41
2018-07-11T21:47:07.168Z,14.37
2018-07-11T21:49:36.769Z,14.32
2018-07-11T21:52:14.046Z,14.28
2018-07-11T21:54:43.621Z,14.21
2018-07-11T21:57:14.412Z,14.17
2018-07-11T21:59:49.536Z,14.11
2018-07-11T22:02:19.902Z,14.77
2018-07-11T22:07:37.735Z,14.10
2018-07-11T22:10:07.336Z,14.05
2018-07-11T22:12:36.600Z,14.73
2018-07-11T22:15:06.048Z,14.24
2018-07-11T22:20:22.767Z,14.04
2018-07-11T22:22:51.262Z,14.02
2018-07-11T22:25:22.220Z,13.96
2018-07-11T22:27:51.122Z,13.90
2018-07-11T22:30:20.135Z,13.88
2018-07-11T22:32:49.046Z,13.84
2018-07-11T22:35:19.933Z,13.84
2018-07-11T22:40:36.225Z,13.82
2018-07-11T22:43:06.088Z,13.79
2018-07-11T22:45:34.803Z,13.76
2018-07-11T22:50:54.654Z,13.70
2018-07-11T22:53:23.488Z,14.37
2018-07-11T22:55:53.040Z,13.90
2018-07-11T22:58:22.041Z,14.49
2018-07-11T23:00:51.159Z,14.62
2018-07-11T23:03:19.690Z,14.72
2018-07-11T23:05:48.181Z,14.14
2018-07-11T23:08:16.663Z,13.98
2018-07-11T23:10:50.826Z,13.89
2018-07-11T23:13:19.626Z,13.83
2018-07-11T23:15:51.376Z,13.77
2018-07-11T23:18:22.930Z,13.71
2018-07-11T23:20:52.832Z,13.64
2018-07-11T23:23:23.677Z,13.59
2018-07-11T23:25:52.301Z,13.56
2018-07-11T23:28:20.981Z,13.51
2018-07-11T23:30:48.952Z,13.46
2018-07-11T23:33:17.187Z,13.40
2018-07-11T23:35:45.156Z,13.35
2018-07-11T23:38:13.408Z,13.30
2018-07-11T23:40:41.545Z,13.28
2018-07-11T23:43:09.675Z,13.25
2018-07-11T23:45:37.806Z,13.22
2018-07-11T23:48:06.049Z,13.20
2018-07-11T23:50:34.141Z,13.17
2018-07-11T23:53:02.540Z,13.16
2018-07-11T23:55:30.594Z,13.14
2018-07-11T23:57:58.987Z,13.13
